Station: Port Augusta

  Atmospheric Gas Attenuation - ITU Rec 676-11   --------------- db/100km ---------------
Date Time Temp RH % AH g/m3 Dew Point Wind Direction Speed kph Gust kph Barometer mB Rainfall Since 9am 24GHz 47GHz 76GHz 122GHz 134GHz 241GHz
22 13:10 24.9 79 18.08 21 26 30 1012 7 39.0 38.3 72.9 192.8 210.8 732.2
22 13:00 24.7 78 17.65 20.6 26 33 1012.2 7 38.1 37.6 71.1 188.1 204.9 711.7
22 12:50 24.3 79 17.48 20.4 26 30 1012.1 7 37.8 37.5 70.7 187.0 203.5 706.5
22 12:40 23.6 82 17.44 20.3 28 30 1012.3 7 37.8 37.7 71.2 188.2 204.8 711.0
22 12:30 24 82 17.84 20.7 28 37 1012.3 7 38.6 38.3 72.7 192.2 209.8 728.4
22 12:20 23.5 82 17.34 20.2 28 35 1012.1 7 37.6 37.6 70.8 187.2 203.5 706.6
22 12:10 23.1 83 17.16 20.1 28 35 1012.1 7 37.2 37.4 70.4 186.0 201.9 700.9
22 12:00 22.9 84 17.17 20.1 24 37 1012.2 7 37.3 37.5 70.6 186.6 202.6 703.3
22 11:50 22.8 87 17.68 20.5 28 32 1012.2 7 38.4 38.5 73.1 193.2 210.7 731.4
22 11:40 22.7 90 18.18 21 22 28 1012.4 7 39.5 39.5 75.6 199.8 218.8 759.5
22 11:30 22.7 91 18.38 21.2 26 33 1012.5 7 39.9 39.9 76.5 202.4 221.9 770.4
22 11:20 22.7 90 18.18 21 24 30 1012.5 7 39.5 39.5 75.6 199.8 218.8 759.5
22 11:10 23.1 94 19.43 22.1 19 22 1012.5 7 42.1 41.8 81.2 214.9 237.3 824.1
22 11:00 22.9 95 19.41 22.1 20 28 1012.7 7 42.1 41.8 81.4 215.2 237.7 825.3
22 10:50 22.6 95 19.08 21.8 20 24 1012.6 7 41.4 41.3 80.0 211.7 233.3 810.2
22 10:40 22.6 95 19.08 21.8 24 28 1012.8 7 41.4 41.4 80.1 211.8 233.4 810.3
22 10:30 22.8 96 19.51 22.1 22 28 1012.9 7 42.3 42.1 82.0 216.9 239.7 832.2
22 10:20 22.5 95 18.97 21.7 26 32 1012.7 7 41.2 41.2 79.6 210.6 231.9 805.2
22 10:10 22.5 95 18.97 21.7 22 24 1012.7 6.8 41.2 41.2 79.6 210.6 231.9 805.2
22 10:00 22.4 95 18.87 21.6 30 41 1012.8 6.2 41.0 41.0 79.2 209.6 230.6 800.7
22 09:50 22.8 92 18.69 21.4 26 30 1012.7 3 40.5 40.5 77.9 206.1 226.5 786.5
22 09:40 23.5 92 19.45 22.1 17 20 1012.7 0.6 42.1 41.6 80.9 214.0 236.4 821.0
22 09:30 23.3 93 19.44 22.1 11 15 1012.7 0.6 42.1 41.7 81.1 214.5 236.9 822.6
22 09:20 23.1 93 19.22 21.9 7 7 1012.7 0.6 41.6 41.4 80.2 212.2 234.0 812.6
22 09:10 23.3 94 19.65 22.3 7 7 1012.7 0.4 42.5 42.1 82.1 217.2 240.3 834.3
22 09:00 23.2 94 19.54 22.2 11 15 1012.6 0.2 42.3 41.9 81.7 216.1 238.8 829.2
22 08:50 23.1 93 19.22 21.9 13 13 1012.5 23 41.6 41.4 80.2 212.1 234.0 812.5
22 08:40 23 93 19.11 21.8 17 19 1012.4 23 41.4 41.2 79.8 211.0 232.5 807.4
22 08:30 22.9 95 19.41 22.1 9 13 1012.5 23 42.1 41.8 81.3 215.2 237.7 825.2
22 08:20 22.7 95 19.19 21.9 9 9 1012.4 22.8 41.6 41.5 80.5 212.9 234.8 815.1
22 08:10 22.7 95 19.19 21.9 9 9 1012.4 22.8 41.6 41.5 80.5 212.9 234.8 815.1
22 08:00 22.8 96 19.51 22.1 11 15 1012.6 22.8 42.3 42.1 81.9 216.8 239.6 832.0
22 07:50 22.8 96 19.51 22.1 11 13 1012.5 22 42.3 42.1 81.9 216.8 239.6 832.0
22 07:40 22.7 96 19.39 22 13 15 1012.4 21.4 42.0 41.9 81.5 215.5 238.0 826.3
22 07:30 22.5 95 18.97 21.7 17 22 1012.4 20.8 41.2 41.2 79.6 210.6 231.9 805.0
22 07:20 22.4 95 18.87 21.6 19 20 1012.2 20.6 41.0 41.0 79.2 209.5 230.5 800.4
22 07:10 22.5 95 18.97 21.7 17 22 1012.1 20.6 41.2 41.2 79.6 210.5 231.8 804.8
22 07:00 22.5 96 19.17 21.8 17 22 1012.2 20.6 41.6 41.6 80.6 213.1 235.0 816.0
22 06:50 22.5 96 19.17 21.8 19 22 1012 20.2 41.6 41.5 80.6 213.1 235.0 815.9
22 06:40 22.4 96 19.06 21.7 20 22 1011.9 20.2 41.4 41.4 80.1 211.9 233.5 810.8
22 06:30 22.2 97 19.04 21.7 19 24 1011.9 20.2 41.4 41.4 80.2 212.2 233.8 811.9
22 06:20 22 97 18.82 21.5 19 24 1011.8 20 40.9 41.1 79.4 209.9 230.9 801.7
22 06:10 21.9 96 18.52 21.2 19 20 1011.7 19.4 40.3 40.5 78.0 206.3 226.4 786.0
22 06:00 21.9 96 18.52 21.2 30 43 1012 15.8 40.3 40.6 78.0 206.3 226.5 786.2
22 05:50 22.3 93 18.36 21.1 33 43 1012.1 8.4 39.9 40.1 76.8 203.2 222.7 773.2
22 05:40 23 93 19.11 21.8 28 32 1011.6 6.8 41.4 41.2 79.7 210.8 232.4 806.9
22 05:30 23.3 92 19.23 21.9 19 35 1011.7 5.4 41.6 41.2 80.0 211.6 233.4 810.4
22 05:20 23.6 94 19.99 22.6 13 17 1011.3 4.6 43.2 42.6 83.4 220.6 244.5 849.2
22 05:10 23.7 94 20.11 22.7 7 9 1011.2 3.4 43.5 42.8 83.8 221.8 246.1 854.8
22 04:50 23.6 93 19.78 22.4 6 6 1011.1 3 42.8 42.2 82.3 217.8 241.1 837.3
22 04:40 23.4 92 19.34 22 9 11 1011.2 2.4 41.9 41.4 80.4 212.6 234.7 815.1
22 04:30 23.6 94 19.99 22.6 7 9 1011.4 2 43.2 42.6 83.4 220.6 244.6 849.3
22 04:20 23.8 93 20 22.6 7 7 1011.3 1.8 43.2 42.5 83.2 220.1 244.0 847.5
22 04:10 24 92 20.02 22.6 0 0 1011.2 0.4 43.3 42.4 83.1 219.8 243.7 846.3
22 04:00 24 92 20.02 22.6 0 0 1011.4 0.4 43.3 42.4 83.1 219.8 243.7 846.4
22 03:50 23.9 91 19.69 22.3 0 0 1011.3 0.4 42.6 41.8 81.5 215.8 238.7 829.1
22 03:40 23.9 92 19.9 22.5 6 7 1011.2 0.4 43.0 42.2 82.6 218.5 242.1 840.7
22 03:30 23.9 91 19.69 22.3 9 11 1011.2 0.4 42.6 41.8 81.5 215.8 238.7 829.1
22 03:20 24 91 19.8 22.4 7 7 1011.2 0.4 42.8 42.0 82.0 216.9 240.2 834.0
22 03:10 24 92 20.02 22.6 9 9 1011.1 0.4 43.3 42.4 83.0 219.8 243.7 846.2
22 03:00 24.1 91 19.91 22.5 7 13 1011.4 0.4 43.0 42.2 82.4 218.1 241.6 839.2
22 02:50 24.3 89 19.69 22.4 7 9 1011.6 0.4 42.5 41.6 81.1 214.7 237.5 824.9
22 02:40 24.3 88 19.47 22.2 6 7 1011.9 0.4 42.0 41.2 80.1 211.9 234.1 812.9
22 02:30 24.5 86 19.25 22 6 9 1012 0.2 41.6 40.7 78.8 208.5 230.0 798.8
22 02:20 24.4 86 19.14 21.9 7 9 1011.7 0.2 41.3 40.5 78.4 207.4 228.5 793.7
22 02:10 24.5 86 19.25 22 13 13 1011.7 0.2 41.6 40.7 78.8 208.5 229.9 798.6
22 02:00 24.7 84 19.01 21.8 13 19 1011.8 0.2 41.0 40.1 77.5 204.9 225.6 783.6
22 01:50 24.8 83 18.89 21.7 19 19 1011.7 0.2 40.8 39.9 76.8 203.1 223.4 776.1
22 01:40 24.6 86 19.36 22.1 13 15 1011.8 0.2 41.8 40.9 79.2 209.6 231.4 803.6
22 01:30 24.6 86 19.36 22.1 9 13 1012 0.2 41.8 40.9 79.2 209.7 231.4 803.7
22 01:20 24.6 85 19.13 21.9 7 9 1012 0.2 41.3 40.4 78.1 206.7 227.8 791.2
22 01:10 24.7 84 19.01 21.8 7 9 1012.2 0.2 41.0 40.2 77.5 205.0 225.7 783.8
22 01:00 24.6 86 19.36 22.1 6 9 1012.4 0.2 41.8 40.9 79.3 209.7 231.5 804.0
22 00:50 24.5 86 19.25 22 7 9 1012.4 0.2 41.6 40.7 78.8 208.6 230.1 799.0
22 00:40 24.7 86 19.47 22.2 7 7 1012.4 0.2 42.0 41.1 79.7 210.8 232.9 808.9
22 00:30 24.9 85 19.46 22.2 7 9 1012.5 0.2 42.0 40.9 79.4 210.2 232.1 806.2
22 00:20 25 81 18.65 21.5 6 7 1012.4 0.2 40.2 39.3 75.5 199.7 219.3 761.6
22 00:10 25 81 18.65 21.5 7 7 1012.5 0.2 40.2 39.3 75.5 199.7 219.3 761.6
22 00:00 25 83 19.11 21.9 4 6 1012.8 0.2 41.2 40.2 77.7 205.5 226.4 786.4
21 23:50 24.9 84 19.23 22 2 6 1012.7 0.2 41.5 40.5 78.4 207.3 228.6 793.9
21 23:40 24.9 85 19.46 22.2 6 6 1012.7 0.2 42.0 40.9 79.5 210.2 232.1 806.4
21 23:30 24.9 85 19.46 22.2 9 9 1012.9 0.2 42.0 41.0 79.5 210.2 232.2 806.5
21 23:20 24.9 84 19.23 22 7 9 1012.8 0.2 41.5 40.5 78.4 207.3 228.6 793.9
21 23:10 24.9 84 19.23 22 9 11 1012.7 0.2 41.5 40.5 78.4 207.3 228.6 793.9
21 23:00 24.8 85 19.35 22.1 9 11 1012.9 0.2 41.7 40.8 79.0 209.1 230.8 801.5
21 22:50 24.8 85 19.35 22.1 9 11 1012.7 0.2 41.7 40.8 79.0 209.1 230.7 801.4
21 22:40 24.8 85 19.35 22.1 9 9 1012.8 0.2 41.7 40.8 79.0 209.1 230.8 801.5
21 22:30 24.9 85 19.46 22.2 7 7 1013.1 0.2 42.0 41.0 79.5 210.3 232.2 806.6
21 22:20 24.9 85 19.46 22.2 7 7 1013.1 0.2 42.0 41.0 79.5 210.3 232.2 806.6
21 22:10 24.9 85 19.46 22.2 7 9 1013.2 0.2 41.9 41.0 79.5 210.3 232.2 806.6
21 22:00 24.8 84 19.12 21.9 9 11 1013.3 0.2 41.2 40.4 78.0 206.3 227.2 789.3
21 21:50 24.9 85 19.46 22.2 9 9 1013 0.2 42.0 41.0 79.5 210.3 232.2 806.5
21 21:40 24.8 85 19.35 22.1 9 11 1012.7 0.2 41.7 40.8 79.0 209.1 230.7 801.4
21 21:30 24.9 84 19.23 22 15 20 1012.8 0.2 41.5 40.5 78.4 207.3 228.6 793.9
21 21:20 24.9 87 19.91 22.6 17 17 1012.6 0.2 42.9 41.8 81.6 216.0 239.2 830.9
21 21:10 24.9 87 19.91 22.6 19 20 1012.4 0.2 42.9 41.8 81.6 215.9 239.2 830.8
21 21:00 25.1 85 19.68 22.4 19 24 1012.4 0.2 42.4 41.3 80.3 212.4 234.9 816.0
21 20:50 25.1 83 19.21 22 22 24 1012 0.2 41.4 40.3 78.0 206.4 227.5 790.3
21 20:40 25 84 19.34 22.1 22 24 1011.9 0.2 41.7 40.6 78.7 208.3 229.8 798.3
21 20:30 25.1 84 19.45 22.2 24 30 1012.3 0.2 41.9 40.8 79.2 209.5 231.3 803.5

Last Refresh: 22-Jan-2022 13:15:10

Bureau of Meteorology